< Cyclone 199713 1997 Season Cyclone 199715 >
Cyclone 199714 (UNNAMED)
General InformationTrack Information on Google MapsDetailed Wind InformationList of All Images || ResourceGoogle EarthGE AnimationAtom FeedGeoJSON
Detalied Best Track (Time Zone = UTC)
Year Month Day Hour Lat. Long. Pressure (hPa) Wind (kt) Class Image Chart
1997 1 7 12 -15.6 92.8 -1 14 2 Image --
1997 1 7 18 -15.6 92.7 -1 19 2 Image --
1997 1 8 00 -15.6 92.7 -1 19 2 Image --
1997 1 8 06 -15.6 92.6 -1 19 2 Image --
1997 1 8 12 -15.6 92.5 -1 19 2 Image --
1997 1 8 18 -15.6 92.4 -1 19 2 Image --
1997 1 9 00 -15.6 92.3 -1 19 2 Image --
1997 1 9 06 -15.7 92.2 -1 19 2 Image --
1997 1 9 12 -15.9 92.1 -1 23 2 Image --
1997 1 9 18 -16.3 92.1 -1 23 2 Image --
1997 1 10 00 -16.7 92.1 -1 23 2 Image --
1997 1 10 06 -17.0 92.1 -1 23 2 Image --
1997 1 10 12 -17.3 92.1 -1 23 2 Image --
1997 1 10 18 -17.7 92.1 -1 27 2 Image --
1997 1 11 00 -18.1 92.1 -1 33 2 Image --
1997 1 11 06 -18.5 92.0 -1 37 3 Image --
1997 1 11 12 -19.1 91.6 -1 43 3 Image --
1997 1 11 18 -19.7 90.9 -1 43 3 Image --
1997 1 12 00 -20.4 90.0 -1 43 3 Image --
1997 1 12 06 -21.0 89.0 -1 43 3 Image --
1997 1 12 12 -21.7 88.0 -1 37 3 Image --
1997 1 12 18 -22.6 86.8 -1 33 2 Image --
1997 1 13 00 -23.5 85.6 -1 33 2 Image --
1997 1 13 06 -24.5 84.2 -1 33 2 Image --
1997 1 13 12 -25.4 82.8 -1 33 2 Image --
1997 1 13 18 -26.0 81.9 -1 27 2 Image --
< Cyclone 199713 1997 Season Cyclone 199715 >

Help